sensor_id;sensor_type;location;lat;lon;timestamp;P1;durP1;ratioP1;P2;durP2;ratioP2
74108;SDS011;62466;47.566;7.786;2022-10-31T00:00:18;6.53;;;3.92;;
74108;SDS011;62466;47.566;7.786;2022-10-31T00:02:43;7.70;;;4.00;;
74108;SDS011;62466;47.566;7.786;2022-10-31T00:05:09;4.50;;;3.72;;
74108;SDS011;62466;47.566;7.786;2022-10-31T00:07:35;12.10;;;4.38;;
74108;SDS011;62466;47.566;7.786;2022-10-31T00:10:00;9.15;;;4.05;;
74108;SDS011;62466;47.566;7.786;2022-10-31T00:12:26;8.77;;;4.20;;
74108;SDS011;62466;47.566;7.786;2022-10-31T00:14:52;8.65;;;3.70;;
74108;SDS011;62466;47.566;7.786;2022-10-31T00:17:17;12.77;;;4.35;;
74108;SDS011;62466;47.566;7.786;2022-10-31T00:19:43;10.60;;;4.10;;
74108;SDS011;62466;47.566;7.786;2022-10-31T00:22:09;6.10;;;3.70;;
74108;SDS011;62466;47.566;7.786;2022-10-31T00:24:34;6.82;;;4.50;;
74108;SDS011;62466;47.566;7.786;2022-10-31T00:27:00;6.90;;;4.63;;
74108;SDS011;62466;47.566;7.786;2022-10-31T00:29:26;9.65;;;4.43;;
74108;SDS011;62466;47.566;7.786;2022-10-31T00:31:51;6.85;;;3.90;;
74108;SDS011;62466;47.566;7.786;2022-10-31T00:34:17;8.70;;;5.25;;
74108;SDS011;62466;47.566;7.786;2022-10-31T00:36:43;8.93;;;4.88;;
74108;SDS011;62466;47.566;7.786;2022-10-31T00:39:12;9.02;;;5.43;;
74108;SDS011;62466;47.566;7.786;2022-10-31T00:41:37;7.90;;;5.68;;
74108;SDS011;62466;47.566;7.786;2022-10-31T00:44:08;8.38;;;4.93;;
74108;SDS011;62466;47.566;7.786;2022-10-31T00:46:34;7.60;;;4.97;;
74108;SDS011;62466;47.566;7.786;2022-10-31T00:48:59;5.93;;;4.30;;
74108;SDS011;62466;47.566;7.786;2022-10-31T00:51:25;6.28;;;4.57;;
74108;SDS011;62466;47.566;7.786;2022-10-31T00:53:51;10.23;;;4.65;;
74108;SDS011;62466;47.566;7.786;2022-10-31T00:56:16;7.40;;;4.72;;
74108;SDS011;62466;47.566;7.786;2022-10-31T00:58:42;6.28;;;4.47;;
74108;SDS011;62466;47.566;7.786;2022-10-31T01:01:07;7.57;;;4.22;;
74108;SDS011;62466;47.566;7.786;2022-10-31T01:03:33;7.25;;;4.50;;
74108;SDS011;62466;47.566;7.786;2022-10-31T01:06:04;6.18;;;4.15;;
74108;SDS011;62466;47.566;7.786;2022-10-31T01:08:35;7.85;;;4.15;;
74108;SDS011;62466;47.566;7.786;2022-10-31T01:11:06;8.32;;;4.40;;
74108;SDS011;62466;47.566;7.786;2022-10-31T01:13:39;10.13;;;4.68;;
74108;SDS011;62466;47.566;7.786;2022-10-31T01:16:06;10.35;;;4.75;;
74108;SDS011;62466;47.566;7.786;2022-10-31T01:18:32;7.07;;;4.88;;
74108;SDS011;62466;47.566;7.786;2022-10-31T01:21:10;7.30;;;4.57;;
74108;SDS011;62466;47.566;7.786;2022-10-31T01:23:37;7.53;;;4.75;;
74108;SDS011;62466;47.566;7.786;2022-10-31T01:28:32;6.97;;;5.00;;
74108;SDS011;62466;47.566;7.786;2022-10-31T01:31:02;8.40;;;4.95;;
74108;SDS011;62466;47.566;7.786;2022-10-31T01:33:33;10.07;;;5.63;;
74108;SDS011;62466;47.566;7.786;2022-10-31T01:35:59;11.10;;;5.18;;
74108;SDS011;62466;47.566;7.786;2022-10-31T01:38:24;10.00;;;6.30;;
74108;SDS011;62466;47.566;7.786;2022-10-31T01:40:50;8.98;;;5.93;;
74108;SDS011;62466;47.566;7.786;2022-10-31T01:43:17;10.05;;;6.25;;
74108;SDS011;62466;47.566;7.786;2022-10-31T01:45:44;12.05;;;7.50;;
74108;SDS011;62466;47.566;7.786;2022-10-31T01:48:15;12.88;;;6.43;;
74108;SDS011;62466;47.566;7.786;2022-10-31T01:50:42;10.88;;;6.57;;
74108;SDS011;62466;47.566;7.786;2022-10-31T01:53:10;11.27;;;5.15;;
74108;SDS011;62466;47.566;7.786;2022-10-31T01:55:38;8.43;;;5.40;;
74108;SDS011;62466;47.566;7.786;2022-10-31T01:58:15;6.65;;;5.60;;
74108;SDS011;62466;47.566;7.786;2022-10-31T02:00:45;6.75;;;5.20;;
74108;SDS011;62466;47.566;7.786;2022-10-31T02:03:12;5.80;;;4.20;;
74108;SDS011;62466;47.566;7.786;2022-10-31T02:05:37;7.00;;;4.30;;
74108;SDS011;62466;47.566;7.786;2022-10-31T02:08:14;9.40;;;4.88;;
74108;SDS011;62466;47.566;7.786;2022-10-31T02:10:41;9.45;;;4.82;;
74108;SDS011;62466;47.566;7.786;2022-10-31T02:13:15;6.43;;;4.30;;
74108;SDS011;62466;47.566;7.786;2022-10-31T02:15:47;6.63;;;4.65;;
74108;SDS011;62466;47.566;7.786;2022-10-31T02:18:16;6.65;;;4.75;;
74108;SDS011;62466;47.566;7.786;2022-10-31T02:20:54;8.65;;;4.78;;
74108;SDS011;62466;47.566;7.786;2022-10-31T02:23:31;10.88;;;4.97;;
74108;SDS011;62466;47.566;7.786;2022-10-31T02:34:38;7.15;;;5.18;;
74108;SDS011;62466;47.566;7.786;2022-10-31T02:40:05;10.10;;;4.93;;
74108;SDS011;62466;47.566;7.786;2022-10-31T02:43:13;10.55;;;5.72;;
74108;SDS011;62466;47.566;7.786;2022-10-31T02:48:33;7.15;;;5.50;;
74108;SDS011;62466;47.566;7.786;2022-10-31T02:51:02;9.70;;;5.47;;
74108;SDS011;62466;47.566;7.786;2022-10-31T02:53:32;8.48;;;5.47;;
74108;SDS011;62466;47.566;7.786;2022-10-31T02:56:01;11.63;;;6.67;;
74108;SDS011;62466;47.566;7.786;2022-10-31T02:58:46;8.23;;;5.70;;
74108;SDS011;62466;47.566;7.786;2022-10-31T03:09:42;13.45;;;7.65;;
74108;SDS011;62466;47.566;7.786;2022-10-31T03:12:21;10.63;;;6.72;;
74108;SDS011;62466;47.566;7.786;2022-10-31T03:15:10;10.27;;;6.65;;
74108;SDS011;62466;47.566;7.786;2022-10-31T03:20:10;10.27;;;6.97;;
74108;SDS011;62466;47.566;7.786;2022-10-31T03:22:36;9.48;;;6.25;;
74108;SDS011;62466;47.566;7.786;2022-10-31T03:25:03;7.57;;;5.60;;
74108;SDS011;62466;47.566;7.786;2022-10-31T03:27:31;7.53;;;5.05;;
74108;SDS011;62466;47.566;7.786;2022-10-31T03:29:58;8.48;;;5.63;;
74108;SDS011;62466;47.566;7.786;2022-10-31T03:32:32;6.82;;;5.20;;
74108;SDS011;62466;47.566;7.786;2022-10-31T03:37:27;8.63;;;5.88;;
74108;SDS011;62466;47.566;7.786;2022-10-31T03:39:54;6.70;;;5.20;;
74108;SDS011;62466;47.566;7.786;2022-10-31T03:42:23;7.93;;;5.75;;
74108;SDS011;62466;47.566;7.786;2022-10-31T03:44:53;7.65;;;6.03;;
74108;SDS011;62466;47.566;7.786;2022-10-31T03:47:26;6.82;;;5.43;;
74108;SDS011;62466;47.566;7.786;2022-10-31T03:49:52;9.93;;;5.68;;
74108;SDS011;62466;47.566;7.786;2022-10-31T03:54:46;8.10;;;5.45;;
74108;SDS011;62466;47.566;7.786;2022-10-31T03:59:58;6.43;;;5.43;;
74108;SDS011;62466;47.566;7.786;2022-10-31T04:02:28;7.00;;;6.30;;
74108;SDS011;62466;47.566;7.786;2022-10-31T04:04:56;8.25;;;6.28;;
74108;SDS011;62466;47.566;7.786;2022-10-31T04:07:22;11.88;;;6.20;;
74108;SDS011;62466;47.566;7.786;2022-10-31T04:09:52;7.10;;;5.68;;
74108;SDS011;62466;47.566;7.786;2022-10-31T04:12:19;11.00;;;6.25;;
74108;SDS011;62466;47.566;7.786;2022-10-31T04:17:39;6.80;;;5.88;;
74108;SDS011;62466;47.566;7.786;2022-10-31T04:20:07;8.63;;;5.85;;
74108;SDS011;62466;47.566;7.786;2022-10-31T04:22:33;8.02;;;6.32;;
74108;SDS011;62466;47.566;7.786;2022-10-31T04:24:59;8.27;;;5.70;;
74108;SDS011;62466;47.566;7.786;2022-10-31T04:27:25;8.48;;;6.97;;
74108;SDS011;62466;47.566;7.786;2022-10-31T04:29:51;9.27;;;6.22;;
74108;SDS011;62466;47.566;7.786;2022-10-31T04:32:17;7.55;;;5.80;;
74108;SDS011;62466;47.566;7.786;2022-10-31T04:34:42;7.60;;;6.00;;
74108;SDS011;62466;47.566;7.786;2022-10-31T04:37:08;7.70;;;6.65;;
74108;SDS011;62466;47.566;7.786;2022-10-31T04:39:33;7.47;;;6.78;;
74108;SDS011;62466;47.566;7.786;2022-10-31T04:42:17;12.25;;;6.78;;
74108;SDS011;62466;47.566;7.786;2022-10-31T04:44:43;8.60;;;5.80;;
74108;SDS011;62466;47.566;7.786;2022-10-31T04:47:09;8.07;;;5.72;;
74108;SDS011;62466;47.566;7.786;2022-10-31T04:49:35;7.13;;;6.40;;
74108;SDS011;62466;47.566;7.786;2022-10-31T04:52:01;8.75;;;6.22;;
74108;SDS011;62466;47.566;7.786;2022-10-31T04:54:27;9.57;;;7.30;;
74108;SDS011;62466;47.566;7.786;2022-10-31T04:57:11;7.15;;;6.18;;
74108;SDS011;62466;47.566;7.786;2022-10-31T04:59:36;9.57;;;7.55;;
74108;SDS011;62466;47.566;7.786;2022-10-31T05:02:02;8.48;;;6.70;;
74108;SDS011;62466;47.566;7.786;2022-10-31T05:05:00;7.75;;;6.05;;
74108;SDS011;62466;47.566;7.786;2022-10-31T05:07:26;8.15;;;5.90;;
74108;SDS011;62466;47.566;7.786;2022-10-31T05:09:51;8.98;;;6.70;;
74108;SDS011;62466;47.566;7.786;2022-10-31T05:12:18;9.75;;;6.50;;
74108;SDS011;62466;47.566;7.786;2022-10-31T05:15:13;7.50;;;5.80;;
74108;SDS011;62466;47.566;7.786;2022-10-31T05:17:57;7.70;;;6.07;;
74108;SDS011;62466;47.566;7.786;2022-10-31T05:20:42;9.80;;;6.68;;
74108;SDS011;62466;47.566;7.786;2022-10-31T05:23:14;9.68;;;7.10;;
74108;SDS011;62466;47.566;7.786;2022-10-31T05:25:40;10.57;;;7.10;;
74108;SDS011;62466;47.566;7.786;2022-10-31T05:28:06;9.50;;;6.72;;
74108;SDS011;62466;47.566;7.786;2022-10-31T05:30:33;7.78;;;6.40;;
74108;SDS011;62466;47.566;7.786;2022-10-31T05:32:59;8.50;;;5.75;;
74108;SDS011;62466;47.566;7.786;2022-10-31T05:35:43;7.30;;;6.20;;
74108;SDS011;62466;47.566;7.786;2022-10-31T05:38:28;11.02;;;6.63;;
74108;SDS011;62466;47.566;7.786;2022-10-31T05:40:57;10.88;;;6.95;;
74108;SDS011;62466;47.566;7.786;2022-10-31T05:43:25;11.30;;;8.18;;
74108;SDS011;62466;47.566;7.786;2022-10-31T05:45:52;9.30;;;6.60;;
74108;SDS011;62466;47.566;7.786;2022-10-31T05:48:38;8.43;;;6.28;;
74108;SDS011;62466;47.566;7.786;2022-10-31T05:51:26;10.05;;;7.03;;
74108;SDS011;62466;47.566;7.786;2022-10-31T05:53:52;10.70;;;6.93;;
74108;SDS011;62466;47.566;7.786;2022-10-31T05:56:18;8.98;;;6.88;;
74108;SDS011;62466;47.566;7.786;2022-10-31T05:58:43;8.35;;;6.50;;
74108;SDS011;62466;47.566;7.786;2022-10-31T06:01:09;8.52;;;6.75;;
74108;SDS011;62466;47.566;7.786;2022-10-31T06:03:35;8.23;;;6.57;;
74108;SDS011;62466;47.566;7.786;2022-10-31T06:06:02;7.68;;;5.75;;
74108;SDS011;62466;47.566;7.786;2022-10-31T06:08:37;9.38;;;5.60;;
74108;SDS011;62466;47.566;7.786;2022-10-31T06:11:11;7.68;;;6.18;;
74108;SDS011;62466;47.566;7.786;2022-10-31T06:13:55;8.30;;;5.38;;
74108;SDS011;62466;47.566;7.786;2022-10-31T06:16:25;6.03;;;5.18;;
74108;SDS011;62466;47.566;7.786;2022-10-31T06:18:56;9.25;;;6.03;;
74108;SDS011;62466;47.566;7.786;2022-10-31T06:21:21;6.95;;;5.13;;
74108;SDS011;62466;47.566;7.786;2022-10-31T06:23:49;8.80;;;5.63;;
74108;SDS011;62466;47.566;7.786;2022-10-31T06:26:30;6.63;;;4.93;;
74108;SDS011;62466;47.566;7.786;2022-10-31T06:29:03;8.40;;;5.80;;
74108;SDS011;62466;47.566;7.786;2022-10-31T06:31:46;6.88;;;5.30;;
74108;SDS011;62466;47.566;7.786;2022-10-31T06:34:11;7.68;;;5.53;;
74108;SDS011;62466;47.566;7.786;2022-10-31T06:36:37;6.15;;;5.55;;
74108;SDS011;62466;47.566;7.786;2022-10-31T06:39:03;5.95;;;4.75;;
74108;SDS011;62466;47.566;7.786;2022-10-31T06:41:29;7.25;;;5.25;;
74108;SDS011;62466;47.566;7.786;2022-10-31T06:43:55;7.20;;;4.70;;
74108;SDS011;62466;47.566;7.786;2022-10-31T06:46:56;6.60;;;5.10;;
74108;SDS011;62466;47.566;7.786;2022-10-31T06:49:44;7.32;;;4.80;;
74108;SDS011;62466;47.566;7.786;2022-10-31T06:52:13;11.77;;;5.50;;
74108;SDS011;62466;47.566;7.786;2022-10-31T06:54:39;7.30;;;5.10;;
74108;SDS011;62466;47.566;7.786;2022-10-31T06:57:05;6.65;;;4.85;;
74108;SDS011;62466;47.566;7.786;2022-10-31T06:59:30;6.20;;;5.43;;
74108;SDS011;62466;47.566;7.786;2022-10-31T07:02:11;7.82;;;5.97;;
74108;SDS011;62466;47.566;7.786;2022-10-31T07:04:38;7.70;;;5.05;;
74108;SDS011;62466;47.566;7.786;2022-10-31T07:07:05;7.93;;;5.07;;
74108;SDS011;62466;47.566;7.786;2022-10-31T07:09:31;7.38;;;5.35;;
74108;SDS011;62466;47.566;7.786;2022-10-31T07:12:01;7.43;;;5.38;;
74108;SDS011;62466;47.566;7.786;2022-10-31T07:14:28;9.20;;;5.53;;
74108;SDS011;62466;47.566;7.786;2022-10-31T07:16:54;7.03;;;5.13;;
74108;SDS011;62466;47.566;7.786;2022-10-31T07:19:30;6.85;;;4.90;;
74108;SDS011;62466;47.566;7.786;2022-10-31T07:21:56;4.78;;;4.28;;
74108;SDS011;62466;47.566;7.786;2022-10-31T07:24:25;4.65;;;4.10;;
74108;SDS011;62466;47.566;7.786;2022-10-31T07:27:14;7.65;;;4.78;;
74108;SDS011;62466;47.566;7.786;2022-10-31T07:29:42;6.80;;;4.93;;
74108;SDS011;62466;47.566;7.786;2022-10-31T07:32:08;8.98;;;4.97;;
74108;SDS011;62466;47.566;7.786;2022-10-31T07:34:37;6.13;;;5.00;;
74108;SDS011;62466;47.566;7.786;2022-10-31T07:37:28;4.60;;;4.05;;
74108;SDS011;62466;47.566;7.786;2022-10-31T07:39:56;5.32;;;4.60;;
74108;SDS011;62466;47.566;7.786;2022-10-31T07:42:22;7.60;;;4.72;;
74108;SDS011;62466;47.566;7.786;2022-10-31T07:44:49;10.15;;;4.93;;
74108;SDS011;62466;47.566;7.786;2022-10-31T07:47:40;9.45;;;5.80;;
74108;SDS011;62466;47.566;7.786;2022-10-31T07:50:26;8.10;;;5.05;;
74108;SDS011;62466;47.566;7.786;2022-10-31T07:53:11;6.57;;;4.25;;
74108;SDS011;62466;47.566;7.786;2022-10-31T07:56:13;7.25;;;4.70;;
74108;SDS011;62466;47.566;7.786;2022-10-31T07:58:39;8.73;;;5.20;;
74108;SDS011;62466;47.566;7.786;2022-10-31T08:01:05;12.85;;;5.78;;
74108;SDS011;62466;47.566;7.786;2022-10-31T08:03:39;13.27;;;6.70;;
74108;SDS011;62466;47.566;7.786;2022-10-31T08:06:23;12.15;;;5.80;;
74108;SDS011;62466;47.566;7.786;2022-10-31T08:09:10;9.07;;;6.38;;
74108;SDS011;62466;47.566;7.786;2022-10-31T08:11:36;10.57;;;6.40;;
74108;SDS011;62466;47.566;7.786;2022-10-31T08:14:01;9.88;;;6.65;;
74108;SDS011;62466;47.566;7.786;2022-10-31T08:16:27;9.27;;;6.10;;
74108;SDS011;62466;47.566;7.786;2022-10-31T08:18:57;10.70;;;6.32;;
74108;SDS011;62466;47.566;7.786;2022-10-31T08:21:23;10.32;;;6.85;;
74108;SDS011;62466;47.566;7.786;2022-10-31T08:23:48;6.60;;;4.75;;
74108;SDS011;62466;47.566;7.786;2022-10-31T08:26:14;12.13;;;6.70;;
74108;SDS011;62466;47.566;7.786;2022-10-31T08:28:41;13.93;;;6.03;;
74108;SDS011;62466;47.566;7.786;2022-10-31T08:31:08;8.52;;;5.65;;
74108;SDS011;62466;47.566;7.786;2022-10-31T08:33:37;11.60;;;5.95;;
74108;SDS011;62466;47.566;7.786;2022-10-31T08:36:18;7.43;;;5.20;;
74108;SDS011;62466;47.566;7.786;2022-10-31T08:39:00;8.48;;;5.75;;
74108;SDS011;62466;47.566;7.786;2022-10-31T08:41:27;9.30;;;4.25;;
74108;SDS011;62466;47.566;7.786;2022-10-31T08:43:52;9.98;;;4.70;;
74108;SDS011;62466;47.566;7.786;2022-10-31T08:46:19;8.57;;;5.38;;
74108;SDS011;62466;47.566;7.786;2022-10-31T08:48:47;9.43;;;5.05;;
74108;SDS011;62466;47.566;7.786;2022-10-31T08:51:17;6.15;;;5.28;;
74108;SDS011;62466;47.566;7.786;2022-10-31T08:53:43;6.80;;;4.72;;
74108;SDS011;62466;47.566;7.786;2022-10-31T08:56:41;10.73;;;5.03;;
74108;SDS011;62466;47.566;7.786;2022-10-31T08:59:23;7.55;;;4.45;;
74108;SDS011;62466;47.566;7.786;2022-10-31T09:02:21;5.72;;;4.15;;
74108;SDS011;62466;47.566;7.786;2022-10-31T09:04:49;7.88;;;4.38;;
74108;SDS011;62466;47.566;7.786;2022-10-31T09:07:16;8.32;;;5.25;;
74108;SDS011;62466;47.566;7.786;2022-10-31T09:09:41;8.68;;;5.63;;
74108;SDS011;62466;47.566;7.786;2022-10-31T09:12:08;8.23;;;5.03;;
74108;SDS011;62466;47.566;7.786;2022-10-31T09:15:05;5.10;;;4.10;;
74108;SDS011;62466;47.566;7.786;2022-10-31T09:17:45;6.32;;;4.50;;
74108;SDS011;62466;47.566;7.786;2022-10-31T09:20:34;9.65;;;4.28;;
74108;SDS011;62466;47.566;7.786;2022-10-31T09:23:05;8.27;;;3.80;;
74108;SDS011;62466;47.566;7.786;2022-10-31T09:25:34;6.25;;;4.47;;
74108;SDS011;62466;47.566;7.786;2022-10-31T09:28:23;5.80;;;3.83;;
74108;SDS011;62466;47.566;7.786;2022-10-31T09:30:49;5.43;;;4.10;;
74108;SDS011;62466;47.566;7.786;2022-10-31T09:33:36;8.77;;;5.20;;
74108;SDS011;62466;47.566;7.786;2022-10-31T09:36:22;8.45;;;4.60;;
74108;SDS011;62466;47.566;7.786;2022-10-31T09:38:47;6.88;;;4.03;;
74108;SDS011;62466;47.566;7.786;2022-10-31T09:41:21;7.18;;;3.90;;
74108;SDS011;62466;47.566;7.786;2022-10-31T09:54:48;5.95;;;3.85;;
74108;SDS011;62466;47.566;7.786;2022-10-31T09:57:19;5.97;;;4.53;;
74108;SDS011;62466;47.566;7.786;2022-10-31T09:59:49;4.43;;;4.03;;
74108;SDS011;62466;47.566;7.786;2022-10-31T10:02:20;6.55;;;4.65;;
74108;SDS011;62466;47.566;7.786;2022-10-31T10:04:51;5.47;;;4.10;;
74108;SDS011;62466;47.566;7.786;2022-10-31T10:07:28;6.80;;;4.82;;
74108;SDS011;62466;47.566;7.786;2022-10-31T10:19:39;6.32;;;5.18;;
74108;SDS011;62466;47.566;7.786;2022-10-31T10:33:05;9.25;;;4.65;;
74108;SDS011;62466;47.566;7.786;2022-10-31T10:35:36;8.88;;;4.22;;
74108;SDS011;62466;47.566;7.786;2022-10-31T10:38:19;9.65;;;4.30;;
74108;SDS011;62466;47.566;7.786;2022-10-31T10:40:49;8.45;;;4.22;;
74108;SDS011;62466;47.566;7.786;2022-10-31T10:43:19;10.73;;;4.25;;
74108;SDS011;62466;47.566;7.786;2022-10-31T10:45:51;6.03;;;4.22;;
74108;SDS011;62466;47.566;7.786;2022-10-31T10:51:38;4.13;;;3.60;;
74108;SDS011;62466;47.566;7.786;2022-10-31T10:57:11;8.00;;;4.25;;
74108;SDS011;62466;47.566;7.786;2022-10-31T10:59:49;7.25;;;4.68;;
74108;SDS011;62466;47.566;7.786;2022-10-31T11:02:18;4.50;;;4.03;;
74108;SDS011;62466;47.566;7.786;2022-10-31T11:04:47;7.10;;;4.13;;
74108;SDS011;62466;47.566;7.786;2022-10-31T11:07:15;8.18;;;3.80;;
74108;SDS011;62466;47.566;7.786;2022-10-31T11:09:41;7.80;;;3.75;;
74108;SDS011;62466;47.566;7.786;2022-10-31T11:12:08;9.10;;;4.28;;
74108;SDS011;62466;47.566;7.786;2022-10-31T11:14:43;7.88;;;3.90;;
74108;SDS011;62466;47.566;7.786;2022-10-31T11:17:32;6.15;;;3.70;;
74108;SDS011;62466;47.566;7.786;2022-10-31T11:22:42;4.65;;;3.65;;
74108;SDS011;62466;47.566;7.786;2022-10-31T11:27:44;9.68;;;5.18;;
74108;SDS011;62466;47.566;7.786;2022-10-31T11:30:11;6.85;;;4.53;;
74108;SDS011;62466;47.566;7.786;2022-10-31T11:32:39;9.45;;;5.95;;
74108;SDS011;62466;47.566;7.786;2022-10-31T11:35:12;9.13;;;5.90;;
74108;SDS011;62466;47.566;7.786;2022-10-31T11:37:42;10.43;;;5.63;;
74108;SDS011;62466;47.566;7.786;2022-10-31T11:40:19;13.43;;;5.03;;
74108;SDS011;62466;47.566;7.786;2022-10-31T11:42:46;8.77;;;5.30;;
74108;SDS011;62466;47.566;7.786;2022-10-31T11:47:42;7.68;;;5.43;;
74108;SDS011;62466;47.566;7.786;2022-10-31T11:52:47;10.23;;;4.85;;
74108;SDS011;62466;47.566;7.786;2022-10-31T11:55:15;7.38;;;4.88;;
74108;SDS011;62466;47.566;7.786;2022-10-31T11:57:51;7.90;;;4.63;;
74108;SDS011;62466;47.566;7.786;2022-10-31T12:02:51;7.63;;;5.57;;
74108;SDS011;62466;47.566;7.786;2022-10-31T12:05:42;8.98;;;4.97;;
74108;SDS011;62466;47.566;7.786;2022-10-31T12:08:11;11.80;;;5.78;;
74108;SDS011;62466;47.566;7.786;2022-10-31T12:10:44;8.15;;;5.40;;
74108;SDS011;62466;47.566;7.786;2022-10-31T12:13:32;9.70;;;5.28;;
74108;SDS011;62466;47.566;7.786;2022-10-31T12:16:20;8.32;;;5.43;;
74108;SDS011;62466;47.566;7.786;2022-10-31T12:21:52;9.30;;;5.38;;
74108;SDS011;62466;47.566;7.786;2022-10-31T12:27:08;9.15;;;5.07;;
74108;SDS011;62466;47.566;7.786;2022-10-31T12:43:36;8.95;;;4.97;;
74108;SDS011;62466;47.566;7.786;2022-10-31T13:00:00;9.85;;;5.03;;
74108;SDS011;62466;47.566;7.786;2022-10-31T13:03:19;8.05;;;5.22;;
74108;SDS011;62466;47.566;7.786;2022-10-31T13:05:53;9.13;;;5.60;;
74108;SDS011;62466;47.566;7.786;2022-10-31T13:08:22;10.40;;;5.95;;
74108;SDS011;62466;47.566;7.786;2022-10-31T13:13:45;10.70;;;6.15;;
74108;SDS011;62466;47.566;7.786;2022-10-31T13:16:17;13.60;;;6.28;;
74108;SDS011;62466;47.566;7.786;2022-10-31T13:18:46;10.43;;;5.25;;
74108;SDS011;62466;47.566;7.786;2022-10-31T13:21:23;10.32;;;5.82;;
74108;SDS011;62466;47.566;7.786;2022-10-31T13:23:51;8.93;;;4.05;;
74108;SDS011;62466;47.566;7.786;2022-10-31T13:26:21;11.68;;;4.95;;
74108;SDS011;62466;47.566;7.786;2022-10-31T13:29:03;7.43;;;4.30;;
74108;SDS011;62466;47.566;7.786;2022-10-31T13:31:39;8.75;;;4.78;;
74108;SDS011;62466;47.566;7.786;2022-10-31T13:34:09;11.75;;;4.97;;
74108;SDS011;62466;47.566;7.786;2022-10-31T13:36:52;9.93;;;4.75;;
74108;SDS011;62466;47.566;7.786;2022-10-31T13:44:39;8.20;;;3.92;;
74108;SDS011;62466;47.566;7.786;2022-10-31T13:47:27;9.93;;;4.70;;
74108;SDS011;62466;47.566;7.786;2022-10-31T13:50:04;10.00;;;4.47;;
74108;SDS011;62466;47.566;7.786;2022-10-31T13:52:31;9.18;;;4.85;;
74108;SDS011;62466;47.566;7.786;2022-10-31T13:54:57;10.90;;;5.82;;
74108;SDS011;62466;47.566;7.786;2022-10-31T13:57:29;8.88;;;5.35;;
74108;SDS011;62466;47.566;7.786;2022-10-31T14:00:22;13.02;;;6.50;;
74108;SDS011;62466;47.566;7.786;2022-10-31T14:02:54;10.63;;;4.78;;
74108;SDS011;62466;47.566;7.786;2022-10-31T14:05:31;7.10;;;3.92;;
74108;SDS011;62466;47.566;7.786;2022-10-31T14:08:01;9.63;;;4.68;;
74108;SDS011;62466;47.566;7.786;2022-10-31T14:10:32;13.23;;;4.95;;
74108;SDS011;62466;47.566;7.786;2022-10-31T14:13:13;9.23;;;4.47;;
74108;SDS011;62466;47.566;7.786;2022-10-31T14:16:06;9.10;;;4.22;;
74108;SDS011;62466;47.566;7.786;2022-10-31T14:21:16;9.13;;;4.10;;
74108;SDS011;62466;47.566;7.786;2022-10-31T14:23:53;6.85;;;3.22;;
74108;SDS011;62466;47.566;7.786;2022-10-31T14:28:52;10.60;;;3.72;;
74108;SDS011;62466;47.566;7.786;2022-10-31T14:45:20;7.70;;;3.67;;
74108;SDS011;62466;47.566;7.786;2022-10-31T14:53:16;9.65;;;3.28;;
74108;SDS011;62466;47.566;7.786;2022-10-31T14:56:04;7.60;;;3.55;;
74108;SDS011;62466;47.566;7.786;2022-10-31T14:58:41;7.32;;;3.55;;
74108;SDS011;62466;47.566;7.786;2022-10-31T15:01:23;5.40;;;3.70;;
74108;SDS011;62466;47.566;7.786;2022-10-31T15:03:54;9.45;;;3.38;;
74108;SDS011;62466;47.566;7.786;2022-10-31T15:06:23;8.43;;;4.10;;
74108;SDS011;62466;47.566;7.786;2022-10-31T15:08:50;9.18;;;3.70;;
74108;SDS011;62466;47.566;7.786;2022-10-31T15:13:50;8.88;;;4.75;;
74108;SDS011;62466;47.566;7.786;2022-10-31T15:16:19;13.93;;;5.25;;
74108;SDS011;62466;47.566;7.786;2022-10-31T15:18:48;7.57;;;4.22;;
74108;SDS011;62466;47.566;7.786;2022-10-31T15:21:26;8.60;;;4.13;;
74108;SDS011;62466;47.566;7.786;2022-10-31T15:23:54;6.03;;;4.30;;
74108;SDS011;62466;47.566;7.786;2022-10-31T15:26:31;10.70;;;5.28;;
74108;SDS011;62466;47.566;7.786;2022-10-31T15:29:02;9.25;;;4.63;;
74108;SDS011;62466;47.566;7.786;2022-10-31T15:31:29;9.03;;;5.10;;
74108;SDS011;62466;47.566;7.786;2022-10-31T15:33:58;11.82;;;4.53;;
74108;SDS011;62466;47.566;7.786;2022-10-31T15:36:27;6.00;;;3.80;;
74108;SDS011;62466;47.566;7.786;2022-10-31T15:38:52;9.82;;;3.78;;
74108;SDS011;62466;47.566;7.786;2022-10-31T15:41:26;8.73;;;3.88;;
74108;SDS011;62466;47.566;7.786;2022-10-31T15:43:57;10.02;;;4.28;;
74108;SDS011;62466;47.566;7.786;2022-10-31T15:46:26;8.37;;;3.70;;
74108;SDS011;62466;47.566;7.786;2022-10-31T15:48:52;7.43;;;4.28;;
74108;SDS011;62466;47.566;7.786;2022-10-31T15:51:24;7.25;;;3.88;;
74108;SDS011;62466;47.566;7.786;2022-10-31T15:53:51;7.82;;;3.22;;
74108;SDS011;62466;47.566;7.786;2022-10-31T15:56:20;6.78;;;4.07;;
74108;SDS011;62466;47.566;7.786;2022-10-31T15:58:49;12.63;;;5.15;;
74108;SDS011;62466;47.566;7.786;2022-10-31T16:01:26;9.30;;;5.50;;
74108;SDS011;62466;47.566;7.786;2022-10-31T16:06:37;12.27;;;5.93;;
74108;SDS011;62466;47.566;7.786;2022-10-31T16:09:03;8.80;;;5.20;;
74108;SDS011;62466;47.566;7.786;2022-10-31T16:11:42;11.70;;;6.20;;
74108;SDS011;62466;47.566;7.786;2022-10-31T16:16:41;13.45;;;7.25;;
74108;SDS011;62466;47.566;7.786;2022-10-31T16:19:17;11.15;;;6.85;;
74108;SDS011;62466;47.566;7.786;2022-10-31T16:21:46;10.23;;;6.40;;
74108;SDS011;62466;47.566;7.786;2022-10-31T16:24:15;12.57;;;7.22;;
74108;SDS011;62466;47.566;7.786;2022-10-31T16:26:49;14.98;;;7.25;;
74108;SDS011;62466;47.566;7.786;2022-10-31T16:37:37;10.55;;;6.53;;
74108;SDS011;62466;47.566;7.786;2022-10-31T16:40:08;16.15;;;6.55;;
74108;SDS011;62466;47.566;7.786;2022-10-31T16:42:40;12.48;;;7.50;;
74108;SDS011;62466;47.566;7.786;2022-10-31T16:45:07;18.98;;;10.25;;
74108;SDS011;62466;47.566;7.786;2022-10-31T16:47:37;17.05;;;10.23;;
74108;SDS011;62466;47.566;7.786;2022-10-31T16:50:05;17.58;;;10.57;;
74108;SDS011;62466;47.566;7.786;2022-10-31T16:52:35;14.10;;;8.43;;
74108;SDS011;62466;47.566;7.786;2022-10-31T16:55:01;14.90;;;8.55;;
74108;SDS011;62466;47.566;7.786;2022-10-31T16:57:27;14.70;;;8.55;;
74108;SDS011;62466;47.566;7.786;2022-10-31T16:59:54;14.68;;;8.40;;
74108;SDS011;62466;47.566;7.786;2022-10-31T17:02:20;22.20;;;8.77;;
74108;SDS011;62466;47.566;7.786;2022-10-31T17:04:46;13.00;;;7.32;;
74108;SDS011;62466;47.566;7.786;2022-10-31T17:07:11;14.80;;;7.80;;
74108;SDS011;62466;47.566;7.786;2022-10-31T17:09:37;13.55;;;8.25;;
74108;SDS011;62466;47.566;7.786;2022-10-31T17:12:02;14.57;;;9.40;;
74108;SDS011;62466;47.566;7.786;2022-10-31T17:14:29;14.40;;;8.30;;
74108;SDS011;62466;47.566;7.786;2022-10-31T17:16:55;13.80;;;8.30;;
74108;SDS011;62466;47.566;7.786;2022-10-31T17:19:21;15.05;;;9.07;;
74108;SDS011;62466;47.566;7.786;2022-10-31T17:21:46;17.13;;;9.27;;
74108;SDS011;62466;47.566;7.786;2022-10-31T17:24:13;15.40;;;9.15;;
74108;SDS011;62466;47.566;7.786;2022-10-31T17:26:39;14.13;;;9.30;;
74108;SDS011;62466;47.566;7.786;2022-10-31T17:29:08;14.07;;;8.20;;
74108;SDS011;62466;47.566;7.786;2022-10-31T17:31:34;11.70;;;8.15;;
74108;SDS011;62466;47.566;7.786;2022-10-31T17:34:03;15.57;;;8.50;;
74108;SDS011;62466;47.566;7.786;2022-10-31T17:36:31;13.43;;;8.43;;
74108;SDS011;62466;47.566;7.786;2022-10-31T17:38:59;15.13;;;8.15;;
74108;SDS011;62466;47.566;7.786;2022-10-31T17:41:26;11.50;;;7.85;;
74108;SDS011;62466;47.566;7.786;2022-10-31T17:43:54;13.88;;;8.38;;
74108;SDS011;62466;47.566;7.786;2022-10-31T17:46:20;15.15;;;10.05;;
74108;SDS011;62466;47.566;7.786;2022-10-31T17:48:46;15.85;;;8.77;;
74108;SDS011;62466;47.566;7.786;2022-10-31T17:51:11;17.88;;;10.70;;
74108;SDS011;62466;47.566;7.786;2022-10-31T17:53:37;15.93;;;10.48;;
74108;SDS011;62466;47.566;7.786;2022-10-31T17:56:04;17.73;;;10.38;;
74108;SDS011;62466;47.566;7.786;2022-10-31T17:58:33;17.88;;;11.52;;